createdAt,value
2023-05-19T00:02:23.336Z,16.23
2023-05-19T00:04:53.945Z,16.17
2023-05-19T00:07:26.289Z,9.77
2023-05-19T00:12:23.211Z,10.13
2023-05-19T00:14:52.072Z,10.20
2023-05-19T00:17:20.949Z,11.20
2023-05-19T00:19:50.154Z,12.38
2023-05-19T00:22:19.898Z,14.38
2023-05-19T00:24:49.603Z,18.02
2023-05-19T00:27:17.846Z,14.25
2023-05-19T00:29:46.239Z,13.88
2023-05-19T00:32:14.552Z,14.02
2023-05-19T00:34:43.246Z,14.25
2023-05-19T00:37:11.446Z,8.07
2023-05-19T00:39:42.271Z,8.52
2023-05-19T00:42:10.922Z,10.73
2023-05-19T00:44:42.491Z,7.57
2023-05-19T00:49:39.698Z,7.90
2023-05-19T00:52:08.963Z,8.02
2023-05-19T00:54:37.847Z,11.18
2023-05-19T00:57:07.957Z,9.82
2023-05-19T00:59:36.354Z,6.35
2023-05-19T01:02:05.544Z,7.70
2023-05-19T01:04:36.165Z,11.18
2023-05-19T01:07:04.919Z,7.97
2023-05-19T01:09:33.574Z,8.10
2023-05-19T01:12:02.914Z,6.38
2023-05-19T01:14:32.631Z,6.55
2023-05-19T01:17:09.987Z,11.32
2023-05-19T01:19:57.520Z,7.38
2023-05-19T01:22:42.978Z,7.25
2023-05-19T01:25:48.420Z,5.00
2023-05-19T01:28:51.103Z,9.05
2023-05-19T01:31:24.775Z,6.75
2023-05-19T01:33:55.413Z,12.07
2023-05-19T01:36:24.815Z,8.83
2023-05-19T01:38:55.347Z,9.80
2023-05-19T01:41:26.980Z,6.55
2023-05-19T01:43:55.570Z,7.00
2023-05-19T01:46:26.174Z,7.47
2023-05-19T01:48:54.877Z,11.85
2023-05-19T01:51:23.178Z,5.47
2023-05-19T01:53:51.434Z,8.70
2023-05-19T01:56:42.487Z,5.22
2023-05-19T01:59:24.221Z,5.88
2023-05-19T02:01:59.080Z,12.83
2023-05-19T02:04:40.071Z,10.18
2023-05-19T02:07:15.769Z,6.13
2023-05-19T02:09:52.836Z,9.00
2023-05-19T02:12:27.643Z,7.93
2023-05-19T02:15:02.433Z,4.03
2023-05-19T02:17:36.332Z,6.35
2023-05-19T02:20:05.673Z,6.38
2023-05-19T02:22:34.277Z,4.35
2023-05-19T02:25:02.587Z,6.95
2023-05-19T02:27:34.835Z,9.17
2023-05-19T02:30:04.554Z,8.70
2023-05-19T02:32:34.726Z,11.63
2023-05-19T02:35:03.110Z,6.90
2023-05-19T02:37:32.690Z,8.60
2023-05-19T02:40:01.026Z,6.72
2023-05-19T02:42:29.310Z,7.18
2023-05-19T02:44:57.531Z,8.18
2023-05-19T02:47:26.129Z,6.75
2023-05-19T02:49:55.766Z,7.10
2023-05-19T02:52:24.752Z,10.45
2023-05-19T02:54:53.440Z,9.35
2023-05-19T02:57:22.114Z,4.22
2023-05-19T02:59:51.128Z,7.03
2023-05-19T03:02:19.703Z,16.23
2023-05-19T03:04:47.924Z,5.00
2023-05-19T03:07:18.099Z,4.47
2023-05-19T03:09:46.479Z,10.88
2023-05-19T03:12:15.714Z,6.65
2023-05-19T03:14:44.447Z,8.45
2023-05-19T03:17:13.443Z,5.15
2023-05-19T03:19:41.714Z,8.35
2023-05-19T03:22:10.017Z,7.05
2023-05-19T03:24:39.744Z,12.02
2023-05-19T03:27:08.851Z,4.93
2023-05-19T03:29:37.335Z,7.05
2023-05-19T03:32:06.356Z,6.38
2023-05-19T03:34:35.574Z,12.02
2023-05-19T03:37:04.275Z,8.35
2023-05-19T03:39:34.164Z,10.13
2023-05-19T03:42:07.276Z,5.13
2023-05-19T03:44:36.453Z,8.27
2023-05-19T03:47:04.808Z,8.80
2023-05-19T03:49:58.164Z,5.78
2023-05-19T03:52:58.998Z,8.13
2023-05-19T03:55:34.120Z,8.52
2023-05-19T03:58:04.242Z,10.88
2023-05-19T04:00:32.838Z,4.45
2023-05-19T04:03:02.492Z,5.47
2023-05-19T04:05:30.823Z,6.30
2023-05-19T04:07:59.010Z,6.07
2023-05-19T04:10:27.265Z,6.75
2023-05-19T04:12:56.995Z,12.60
2023-05-19T04:15:28.492Z,9.00
2023-05-19T04:17:57.447Z,7.05
2023-05-19T04:20:25.799Z,9.75
2023-05-19T04:22:54.298Z,8.02
2023-05-19T04:25:25.318Z,5.20
2023-05-19T04:27:57.631Z,10.18
2023-05-19T04:30:28.740Z,8.32
2023-05-19T04:32:58.243Z,9.38
2023-05-19T04:35:27.109Z,9.30
2023-05-19T04:37:56.090Z,17.52
2023-05-19T04:40:31.510Z,6.85
2023-05-19T04:43:02.358Z,6.13
2023-05-19T04:45:34.204Z,9.90
2023-05-19T04:48:04.209Z,6.55
2023-05-19T04:50:33.001Z,9.13
2023-05-19T04:53:02.255Z,10.88
2023-05-19T04:55:31.150Z,8.95
2023-05-19T04:57:59.551Z,6.93
2023-05-19T05:00:28.551Z,6.72
2023-05-19T05:03:07.244Z,8.68
2023-05-19T05:05:36.123Z,8.75
2023-05-19T05:08:04.421Z,11.70
2023-05-19T05:10:37.801Z,8.23
2023-05-19T05:13:07.086Z,11.38
2023-05-19T05:15:35.935Z,8.30
2023-05-19T05:18:06.633Z,9.43
2023-05-19T05:20:35.820Z,7.28
2023-05-19T05:23:04.752Z,12.95
2023-05-19T05:25:34.859Z,7.25
2023-05-19T05:28:05.419Z,8.70
2023-05-19T05:30:36.415Z,4.72
2023-05-19T05:33:07.713Z,7.60
2023-05-19T05:35:39.243Z,9.18
2023-05-19T05:38:12.462Z,8.95
2023-05-19T05:40:41.706Z,10.68
2023-05-19T05:43:11.497Z,5.97
2023-05-19T05:45:46.436Z,6.95
2023-05-19T05:48:17.014Z,7.88
2023-05-19T05:50:46.634Z,8.25
2023-05-19T05:53:20.947Z,9.65
2023-05-19T05:55:54.184Z,7.93
2023-05-19T05:58:25.995Z,4.30
2023-05-19T06:00:57.843Z,9.60
2023-05-19T06:03:29.086Z,6.30
2023-05-19T06:06:02.016Z,4.85
2023-05-19T06:08:30.352Z,6.78
2023-05-19T06:10:59.230Z,4.40
2023-05-19T06:13:29.469Z,8.57
2023-05-19T06:15:59.854Z,4.97
2023-05-19T06:18:38.205Z,6.80
2023-05-19T06:21:07.152Z,8.88
2023-05-19T06:23:35.557Z,4.35
2023-05-19T06:26:03.958Z,3.50
2023-05-19T06:28:32.558Z,2.78
2023-05-19T06:31:01.531Z,5.65
2023-05-19T06:33:53.897Z,6.83
2023-05-19T06:36:22.734Z,4.18
2023-05-19T06:38:51.239Z,8.55
2023-05-19T06:41:19.587Z,3.10
2023-05-19T06:43:49.119Z,6.32
2023-05-19T06:46:17.932Z,3.85
2023-05-19T06:48:46.427Z,5.38
2023-05-19T06:51:21.683Z,3.85
2023-05-19T06:53:53.291Z,3.63
2023-05-19T06:56:23.019Z,4.45
2023-05-19T06:58:53.442Z,6.93
2023-05-19T07:01:28.228Z,6.28
2023-05-19T07:03:57.639Z,5.22
2023-05-19T07:06:27.471Z,2.88
2023-05-19T07:08:56.033Z,3.90
2023-05-19T07:11:26.443Z,3.85
2023-05-19T07:13:55.415Z,3.00
2023-05-19T07:16:28.821Z,3.88
2023-05-19T07:18:57.561Z,3.15
2023-05-19T07:21:27.545Z,2.25
2023-05-19T07:23:56.214Z,3.17
2023-05-19T07:26:24.800Z,2.95
2023-05-19T07:28:53.316Z,5.97
2023-05-19T07:31:22.041Z,2.38
2023-05-19T07:33:53.029Z,3.55
2023-05-19T07:36:22.708Z,3.70
2023-05-19T07:38:53.118Z,4.72
2023-05-19T07:41:21.658Z,3.72
2023-05-19T07:43:49.940Z,3.80
2023-05-19T07:46:18.610Z,5.75
2023-05-19T07:48:46.939Z,6.00
2023-05-19T07:51:16.299Z,3.97
2023-05-19T07:53:44.587Z,6.50
2023-05-19T07:56:14.476Z,2.63
2023-05-19T07:58:42.790Z,3.40
2023-05-19T08:01:11.009Z,4.00
2023-05-19T08:03:39.402Z,3.22
2023-05-19T08:06:07.703Z,4.75
2023-05-19T08:08:36.128Z,6.30
2023-05-19T08:11:05.256Z,4.45
2023-05-19T08:13:35.682Z,5.38
2023-05-19T08:16:04.136Z,6.13
2023-05-19T08:18:32.484Z,6.82
2023-05-19T08:21:01.494Z,5.28
2023-05-19T08:23:29.978Z,2.83
2023-05-19T08:25:58.260Z,5.85
2023-05-19T08:28:26.747Z,2.60
2023-05-19T08:30:56.469Z,3.95
2023-05-19T08:33:24.674Z,4.22
2023-05-19T08:35:53.146Z,2.78
2023-05-19T08:38:22.172Z,7.20
2023-05-19T08:40:50.695Z,9.98
2023-05-19T08:43:19.339Z,2.50
2023-05-19T08:45:48.550Z,2.58
2023-05-19T08:48:19.981Z,5.15
2023-05-19T08:50:54.230Z,3.42
2023-05-19T08:56:10.255Z,5.32
2023-05-19T08:58:40.715Z,4.72
2023-05-19T09:01:09.515Z,5.10
2023-05-19T09:03:40.851Z,5.22
2023-05-19T09:06:10.616Z,3.28
2023-05-19T09:08:39.351Z,5.75
2023-05-19T09:11:08.971Z,2.58
2023-05-19T09:13:37.463Z,2.47
2023-05-19T09:16:06.978Z,2.80
2023-05-19T09:18:35.410Z,2.88
2023-05-19T09:21:07.795Z,4.70
2023-05-19T09:23:36.931Z,7.55
2023-05-19T09:26:07.376Z,5.22
2023-05-19T09:28:38.460Z,2.43
2023-05-19T09:31:08.523Z,2.50
2023-05-19T09:33:38.165Z,2.88
2023-05-19T09:36:08.861Z,3.30
2023-05-19T09:38:38.157Z,3.77
2023-05-19T09:41:07.651Z,4.03
2023-05-19T09:43:36.604Z,3.30
2023-05-19T09:46:07.372Z,3.83
2023-05-19T09:48:36.658Z,2.83
2023-05-19T09:51:08.178Z,4.53
2023-05-19T09:53:39.158Z,3.72
2023-05-19T09:56:10.088Z,3.05
2023-05-19T09:58:39.195Z,4.32
2023-05-19T10:01:10.064Z,3.13
2023-05-19T10:03:40.764Z,3.58
2023-05-19T10:06:10.554Z,3.63
2023-05-19T10:08:42.348Z,5.28
2023-05-19T10:13:41.140Z,4.82
2023-05-19T10:16:11.333Z,2.83
2023-05-19T10:18:41.887Z,3.95
2023-05-19T10:21:10.621Z,4.45
2023-05-19T10:23:40.795Z,2.33
2023-05-19T10:26:11.064Z,3.25
2023-05-19T10:28:42.274Z,2.95
2023-05-19T10:31:16.534Z,1.20
2023-05-19T10:34:02.261Z,2.22
2023-05-19T10:36:43.316Z,3.90
2023-05-19T10:39:19.107Z,5.22
2023-05-19T10:41:53.479Z,3.17
2023-05-19T10:44:32.916Z,3.58
2023-05-19T10:47:01.355Z,6.38
2023-05-19T10:49:30.053Z,3.30
2023-05-19T10:51:58.534Z,3.60
2023-05-19T10:54:43.640Z,5.95
2023-05-19T10:57:16.884Z,3.72
2023-05-19T10:59:45.870Z,5.63
2023-05-19T11:02:39.194Z,2.80
2023-05-19T11:05:12.931Z,7.07
2023-05-19T11:07:44.434Z,3.47
2023-05-19T11:10:14.857Z,2.50
2023-05-19T11:12:46.582Z,4.53
2023-05-19T11:15:16.757Z,2.60
2023-05-19T11:17:49.683Z,3.60
2023-05-19T11:20:24.763Z,3.03
2023-05-19T11:23:07.080Z,5.25
2023-05-19T11:25:48.073Z,4.85
2023-05-19T11:28:20.701Z,4.63
2023-05-19T11:30:52.011Z,3.28
2023-05-19T11:33:27.410Z,4.35
2023-05-19T11:35:59.235Z,4.57
2023-05-19T11:38:31.309Z,2.75
2023-05-19T11:43:32.126Z,3.03
2023-05-19T11:46:01.176Z,2.35
2023-05-19T11:48:31.823Z,6.82
2023-05-19T11:51:01.816Z,4.28
2023-05-19T11:53:33.432Z,3.80
2023-05-19T11:56:08.020Z,3.10
2023-05-19T11:58:38.847Z,3.60
2023-05-19T12:01:19.754Z,4.10
2023-05-19T12:03:48.454Z,4.38
2023-05-19T12:06:19.422Z,3.92
2023-05-19T12:08:51.762Z,4.10
2023-05-19T12:11:25.860Z,4.35
2023-05-19T12:14:03.230Z,9.65
2023-05-19T12:16:47.749Z,2.53
2023-05-19T12:19:32.433Z,6.07
2023-05-19T12:22:21.740Z,4.20
2023-05-19T12:24:51.884Z,7.45
2023-05-19T12:27:24.237Z,6.05
2023-05-19T12:29:53.504Z,4.40
2023-05-19T12:32:25.453Z,2.50
2023-05-19T12:37:33.442Z,5.45
2023-05-19T12:40:26.950Z,3.65
2023-05-19T12:43:02.482Z,3.25
2023-05-19T12:45:42.895Z,2.92
2023-05-19T12:48:52.588Z,5.75
2023-05-19T12:51:26.958Z,8.20
2023-05-19T12:53:57.983Z,5.65
2023-05-19T12:56:28.221Z,3.92
2023-05-19T12:59:05.182Z,4.50
2023-05-19T13:01:34.260Z,4.95
2023-05-19T13:04:11.218Z,4.78
2023-05-19T13:06:43.987Z,2.95
2023-05-19T13:09:13.605Z,4.57
2023-05-19T13:13:08.272Z,4.78
2023-05-19T13:14:57.000Z,3.60
2023-05-19T13:17:26.805Z,4.82
2023-05-19T13:19:55.548Z,8.50
2023-05-19T13:22:24.277Z,7.38
2023-05-19T13:24:53.413Z,2.63
2023-05-19T13:27:22.798Z,7.82
2023-05-19T13:29:51.197Z,5.10
2023-05-19T13:32:20.977Z,3.40
2023-05-19T13:34:49.369Z,4.43
2023-05-19T13:37:17.849Z,6.47
2023-05-19T13:39:46.366Z,6.25
2023-05-19T13:42:14.722Z,7.10
2023-05-19T13:44:42.976Z,7.88
2023-05-19T13:47:11.316Z,7.78
2023-05-19T13:49:41.356Z,3.30
2023-05-19T13:52:09.683Z,5.60
2023-05-19T13:54:37.963Z,4.53
2023-05-19T13:57:06.685Z,5.40
2023-05-19T13:59:37.282Z,6.72
2023-05-19T14:02:11.608Z,5.18
2023-05-19T14:04:41.445Z,4.72
2023-05-19T14:07:10.536Z,7.68
2023-05-19T14:09:38.769Z,5.10
2023-05-19T14:12:07.424Z,3.70
2023-05-19T14:14:35.707Z,4.72
2023-05-19T14:17:04.556Z,5.00
2023-05-19T14:19:32.860Z,5.70
2023-05-19T14:22:02.525Z,8.07
2023-05-19T14:24:30.864Z,7.05
2023-05-19T14:26:59.125Z,7.07
2023-05-19T14:29:27.954Z,6.60
2023-05-19T14:31:56.217Z,3.90
2023-05-19T14:34:24.610Z,5.22
2023-05-19T14:36:53.478Z,4.05
2023-05-19T14:39:23.252Z,5.00
2023-05-19T14:41:53.049Z,4.03
2023-05-19T14:44:21.402Z,3.97
2023-05-19T14:46:49.765Z,4.35
2023-05-19T14:49:18.292Z,6.55
2023-05-19T14:51:46.534Z,4.45
2023-05-19T14:54:15.330Z,6.70
2023-05-19T14:56:45.431Z,5.40
2023-05-19T14:59:13.786Z,4.05
2023-05-19T15:01:42.546Z,8.00
2023-05-19T15:04:11.256Z,7.97
2023-05-19T15:06:39.564Z,5.40
2023-05-19T15:09:08.114Z,5.22
2023-05-19T15:11:36.417Z,7.25
2023-05-19T15:14:07.415Z,12.13
2023-05-19T15:16:45.358Z,5.47
2023-05-19T15:19:16.577Z,5.85
2023-05-19T15:21:45.904Z,4.75
2023-05-19T15:24:14.385Z,7.35
2023-05-19T15:26:43.315Z,8.65
2023-05-19T15:31:47.909Z,9.55
2023-05-19T15:34:17.544Z,11.52
2023-05-19T15:36:46.876Z,9.35
2023-05-19T15:39:15.261Z,6.53
2023-05-19T15:41:44.644Z,7.68
2023-05-19T15:44:13.221Z,7.03
2023-05-19T15:46:42.908Z,9.82
2023-05-19T15:49:12.798Z,10.30
2023-05-19T15:51:42.011Z,9.35
2023-05-19T15:54:10.636Z,6.82
2023-05-19T15:56:38.987Z,8.60
2023-05-19T15:59:07.958Z,6.43
2023-05-19T16:01:36.927Z,7.88
2023-05-19T16:04:12.157Z,8.20
2023-05-19T16:06:40.736Z,7.30
2023-05-19T16:09:11.396Z,7.68
2023-05-19T16:11:48.679Z,10.27
2023-05-19T16:14:17.046Z,9.80
2023-05-19T16:16:45.699Z,7.18
2023-05-19T16:19:15.690Z,10.55
2023-05-19T16:21:44.110Z,9.30
2023-05-19T16:24:12.337Z,13.50
2023-05-19T16:26:40.961Z,9.27
2023-05-19T16:29:11.906Z,9.45
2023-05-19T16:31:49.962Z,9.52
2023-05-19T16:34:24.737Z,7.60
2023-05-19T16:36:56.353Z,6.97
2023-05-19T16:39:27.661Z,8.75
2023-05-19T16:42:03.651Z,9.63
2023-05-19T16:44:32.525Z,5.95
2023-05-19T16:47:05.819Z,7.53
2023-05-19T16:49:41.794Z,10.43
2023-05-19T16:52:10.264Z,10.35
2023-05-19T16:54:39.039Z,8.75
2023-05-19T16:57:10.292Z,10.88
2023-05-19T16:59:38.885Z,7.90
2023-05-19T17:02:10.361Z,11.52
2023-05-19T17:04:41.266Z,9.35
2023-05-19T17:07:13.770Z,11.35
2023-05-19T17:09:48.692Z,9.52
2023-05-19T17:12:17.384Z,16.52
2023-05-19T17:14:52.276Z,9.27
2023-05-19T17:17:25.462Z,11.77
2023-05-19T17:19:55.422Z,10.32
2023-05-19T17:22:25.049Z,7.45
2023-05-19T17:24:53.461Z,14.63
2023-05-19T17:27:22.080Z,9.63
2023-05-19T17:29:50.346Z,7.93
2023-05-19T17:32:18.611Z,10.52
2023-05-19T17:34:47.118Z,8.18
2023-05-19T17:37:19.262Z,7.28
2023-05-19T17:39:47.512Z,10.80
2023-05-19T17:42:15.765Z,8.65
2023-05-19T17:44:44.303Z,9.45
2023-05-19T17:47:12.598Z,10.63
2023-05-19T17:49:41.563Z,16.35
2023-05-19T17:52:11.069Z,11.07
2023-05-19T17:54:41.364Z,7.93
2023-05-19T17:57:12.810Z,11.35
2023-05-19T17:59:41.571Z,7.17
2023-05-19T18:02:12.079Z,8.32
2023-05-19T18:04:41.227Z,10.68
2023-05-19T18:07:11.105Z,9.43
2023-05-19T18:09:46.077Z,10.20
2023-05-19T18:12:14.897Z,8.30
2023-05-19T18:14:43.107Z,13.88
2023-05-19T18:17:11.475Z,10.77
2023-05-19T18:19:39.720Z,9.38
2023-05-19T18:22:10.477Z,11.13
2023-05-19T18:24:40.388Z,7.97
2023-05-19T18:27:08.610Z,9.82
2023-05-19T18:29:36.822Z,10.90
2023-05-19T18:32:05.432Z,10.98
2023-05-19T18:34:33.711Z,8.18
2023-05-19T18:37:02.308Z,13.43
2023-05-19T18:39:30.924Z,9.10
2023-05-19T18:42:01.745Z,8.02
2023-05-19T18:44:30.703Z,9.27
2023-05-19T18:46:59.449Z,8.52
2023-05-19T18:49:27.672Z,12.60
2023-05-19T18:51:55.839Z,9.93
2023-05-19T18:54:24.979Z,12.18
2023-05-19T18:56:53.199Z,11.90
2023-05-19T18:59:23.826Z,8.60
2023-05-19T19:01:51.980Z,12.25
2023-05-19T19:04:20.280Z,12.95
2023-05-19T19:06:49.111Z,16.58
2023-05-19T19:09:17.373Z,14.20
2023-05-19T19:11:45.835Z,14.10
2023-05-19T19:14:14.338Z,14.05
2023-05-19T19:16:44.083Z,15.93
2023-05-19T19:19:12.732Z,12.57
2023-05-19T19:21:41.582Z,14.90
2023-05-19T19:24:09.812Z,13.18
2023-05-19T19:26:38.368Z,10.60
2023-05-19T19:29:06.699Z,10.57
2023-05-19T19:31:35.493Z,13.75
2023-05-19T19:34:09.243Z,12.65
2023-05-19T19:36:37.480Z,14.07
2023-05-19T19:39:05.790Z,11.95
2023-05-19T19:41:34.704Z,12.60
2023-05-19T19:44:03.046Z,17.30
2023-05-19T19:46:31.399Z,13.38
2023-05-19T19:49:00.437Z,17.05
2023-05-19T19:51:30.255Z,11.70
2023-05-19T19:53:58.832Z,25.60
2023-05-19T19:56:27.675Z,13.57
2023-05-19T19:58:59.011Z,14.25
2023-05-19T20:01:28.135Z,13.95
2023-05-19T20:03:57.548Z,12.63
2023-05-19T20:06:26.065Z,18.17
2023-05-19T20:08:55.882Z,14.80
2023-05-19T20:11:24.721Z,16.23
2023-05-19T20:13:53.406Z,15.38
2023-05-19T20:16:22.119Z,15.43
2023-05-19T20:18:50.772Z,18.80
2023-05-19T20:21:19.094Z,13.25
2023-05-19T20:23:47.345Z,20.10
2023-05-19T20:26:17.517Z,16.45
2023-05-19T20:28:46.506Z,18.88
2023-05-19T20:31:14.951Z,16.05
2023-05-19T20:33:43.629Z,17.42
2023-05-19T20:36:12.061Z,15.57
2023-05-19T20:38:40.562Z,23.55
2023-05-19T20:41:08.870Z,38.72
2023-05-19T20:43:38.632Z,45.38
2023-05-19T20:46:07.488Z,41.45
2023-05-19T20:48:36.033Z,40.55
2023-05-19T20:51:04.345Z,42.90
2023-05-19T20:53:32.822Z,43.80
2023-05-19T20:56:01.155Z,45.25
2023-05-19T20:58:30.415Z,38.35
2023-05-19T21:01:00.153Z,28.52
2023-05-19T21:03:28.734Z,26.98
2023-05-19T21:05:57.401Z,18.40
2023-05-19T21:08:26.485Z,24.83
2023-05-19T21:10:54.804Z,20.58
2023-05-19T21:13:23.048Z,25.00
2023-05-19T21:15:51.338Z,22.90
2023-05-19T21:18:20.990Z,22.67
2023-05-19T21:20:49.280Z,20.58
2023-05-19T21:23:17.532Z,21.90
2023-05-19T21:25:46.076Z,22.45
2023-05-19T21:28:14.249Z,18.20
2023-05-19T21:30:43.066Z,23.70
2023-05-19T21:33:11.676Z,23.38
2023-05-19T21:35:41.805Z,26.48
2023-05-19T21:38:22.859Z,24.63
2023-05-19T21:40:51.967Z,24.02
2023-05-19T21:43:21.521Z,22.55
2023-05-19T21:45:50.070Z,28.95
2023-05-19T21:48:18.363Z,34.10
2023-05-19T21:50:53.662Z,27.08
2023-05-19T21:53:21.975Z,26.02
2023-05-19T21:55:50.312Z,32.05
2023-05-19T21:58:18.594Z,32.35
2023-05-19T22:00:50.873Z,22.88
2023-05-19T22:03:19.576Z,23.38
2023-05-19T22:05:51.937Z,20.88
2023-05-19T22:08:22.329Z,24.67
2023-05-19T22:10:51.462Z,27.65
2023-05-19T22:13:19.827Z,26.45
2023-05-19T22:15:48.439Z,22.23
2023-05-19T22:18:16.831Z,23.38
2023-05-19T22:20:45.136Z,16.98
2023-05-19T22:23:14.783Z,19.27
2023-05-19T22:25:43.216Z,17.25
2023-05-19T22:28:11.584Z,20.10
2023-05-19T22:30:42.862Z,20.73
2023-05-19T22:33:11.444Z,17.95
2023-05-19T22:35:39.813Z,16.70
2023-05-19T22:38:10.321Z,17.45
2023-05-19T22:40:40.393Z,13.77
2023-05-19T22:43:08.763Z,19.02
2023-05-19T22:45:37.234Z,17.40
2023-05-19T22:48:07.832Z,14.18
2023-05-19T22:50:36.081Z,15.75
2023-05-19T22:53:04.661Z,16.55
2023-05-19T22:55:33.110Z,16.67
2023-05-19T22:58:03.128Z,18.02
2023-05-19T23:00:31.483Z,15.95
2023-05-19T23:03:01.903Z,14.68
2023-05-19T23:05:30.219Z,17.50
2023-05-19T23:07:58.533Z,16.00
2023-05-19T23:10:26.868Z,16.35
2023-05-19T23:12:55.227Z,23.40
2023-05-19T23:15:25.133Z,17.45
2023-05-19T23:17:53.754Z,18.73
2023-05-19T23:20:22.057Z,19.02
2023-05-19T23:22:50.487Z,25.50
2023-05-19T23:25:19.197Z,23.88
2023-05-19T23:27:47.746Z,19.75
2023-05-19T23:30:16.061Z,20.25
2023-05-19T23:32:45.807Z,21.08
2023-05-19T23:35:15.780Z,21.92
2023-05-19T23:37:44.150Z,17.60
2023-05-19T23:40:14.052Z,17.88
2023-05-19T23:42:44.402Z,21.73
2023-05-19T23:45:13.015Z,16.75
2023-05-19T23:47:41.659Z,13.65
2023-05-19T23:50:11.976Z,20.95
2023-05-19T23:52:40.266Z,18.15
2023-05-19T23:55:09.948Z,15.48
2023-05-19T23:57:38.226Z,18.33
